Time;durP1;ratioP1;P1;durP2;ratioP2;P2;SDS_P1;SDS_P2;PMS_P1;PMS_P2;Temp;Humidity;BMP_temperature;BMP_pressure;BME280_temperature;BME280_humidity;BME280_pressure;Samples;Min_cycle;Max_cycle;Signal;HPM_P1;HPM_P2
2022/08/16 00:00:23;;;;;;;6.00;5.50;;;19.10;99.90;;;;;;5015904;28;20983;-64
2022/08/16 00:02:50;;;;;;;6.30;5.70;;;19.10;99.90;;;;;;5034113;28;20216;-64
2022/08/16 00:05:16;;;;;;;5.47;4.97;;;19.00;99.90;;;;;;5032936;28;20819;-64
2022/08/16 00:07:42;;;;;;;6.50;5.87;;;18.90;99.90;;;;;;5028566;28;20494;-64
2022/08/16 00:10:11;;;;;;;5.70;5.23;;;18.90;99.90;;;;;;5025601;28;20486;-66
2022/08/16 00:12:40;;;;;;;5.97;5.47;;;18.90;99.90;;;;;;5026071;28;20233;-66
2022/08/16 00:15:16;;;;;;;6.70;6.10;;;18.90;99.90;;;;;;5030636;28;20796;-66
2022/08/16 00:17:41;;;;;;;7.00;6.40;;;18.80;99.90;;;;;;5020058;28;20501;-63
2022/08/16 00:20:12;;;;;;;6.70;6.20;;;18.70;99.90;;;;;;5020770;28;20833;-64
2022/08/16 00:22:40;;;;;;;7.80;6.23;;;18.70;99.90;;;;;;5032720;28;20187;-64
2022/08/16 00:25:08;;;;;;;10.33;5.93;;;18.70;99.90;;;;;;5027262;28;20461;-64
2022/08/16 00:27:34;;;;;;;6.70;5.30;;;18.70;99.90;;;;;;5032053;28;20869;-64
2022/08/16 00:30:00;;;;;;;6.13;5.17;;;18.70;99.90;;;;;;5010777;28;20449;-67
2022/08/16 00:32:26;;;;;;;6.30;5.70;;;18.70;99.90;;;;;;5016931;28;20191;-66
2022/08/16 00:34:51;;;;;;;6.63;5.93;;;18.70;99.90;;;;;;5027627;28;20236;-66
2022/08/16 00:37:17;;;;;;;6.90;5.80;;;18.70;99.90;;;;;;5033466;28;20575;-66
2022/08/16 00:39:43;;;;;;;6.10;5.60;;;18.60;99.90;;;;;;5036343;28;20721;-66
2022/08/16 00:42:08;;;;;;;6.93;5.97;;;18.60;99.90;;;;;;5025907;28;20464;-66
2022/08/16 00:44:35;;;;;;;10.40;6.23;;;18.70;99.90;;;;;;5028421;28;20676;-66
2022/08/16 00:47:09;;;;;;;7.43;5.60;;;18.70;99.90;;;;;;5020332;28;20216;-67
2022/08/16 00:49:35;;;;;;;5.53;5.13;;;18.70;99.90;;;;;;5033060;28;20527;-66
2022/08/16 00:52:02;;;;;;;6.27;5.67;;;18.80;99.90;;;;;;5029773;28;20501;-66
2022/08/16 00:54:30;;;;;;;8.37;6.03;;;18.80;99.90;;;;;;5037967;28;20527;-66
2022/08/16 00:56:57;;;;;;;6.10;5.60;;;18.80;99.90;;;;;;5031884;28;20572;-66
2022/08/16 00:59:26;;;;;;;6.23;5.63;;;18.80;99.90;;;;;;5043191;28;20443;-66
2022/08/16 01:01:52;;;;;;;7.00;6.23;;;18.70;99.90;;;;;;5022753;28;20444;-66
2022/08/16 01:04:22;;;;;;;6.27;5.70;;;18.70;99.90;;;;;;5039143;28;20506;-67
2022/08/16 01:06:49;;;;;;;6.70;6.13;;;18.70;99.90;;;;;;5041313;28;20452;-67
2022/08/16 01:09:14;;;;;;;6.03;5.60;;;18.70;99.90;;;;;;5039865;28;21006;-66
2022/08/16 01:11:40;;;;;;;6.93;5.63;;;18.70;99.90;;;;;;5044781;28;20585;-66
2022/08/16 01:14:13;;;;;;;5.50;5.00;;;18.70;99.90;;;;;;5027410;28;20224;-66
2022/08/16 01:16:41;;;;;;;6.40;5.90;;;18.70;99.90;;;;;;5040437;28;20291;-66
2022/08/16 01:19:38;;;;;;;6.63;6.00;;;18.70;99.90;;;;;;5042715;28;20530;-66
2022/08/16 01:22:11;;;;;;;5.27;4.77;;;18.70;99.90;;;;;;5027359;28;20455;-63
2022/08/16 01:24:42;;;;;;;6.20;5.70;;;18.70;99.90;;;;;;5035891;28;20447;-66
2022/08/16 01:27:19;;;;;;;8.40;6.23;;;18.70;99.90;;;;;;5029104;28;20477;-66
2022/08/16 01:29:59;;;;;;;6.77;6.10;;;18.60;99.90;;;;;;5036604;28;20574;-66
2022/08/16 01:32:29;;;;;;;6.40;5.73;;;18.60;99.90;;;;;;5038240;28;20436;-66
2022/08/16 01:34:55;;;;;;;6.43;5.93;;;18.50;99.90;;;;;;5039831;28;20436;-65
2022/08/16 01:37:20;;;;;;;6.60;6.10;;;18.60;99.90;;;;;;5025285;28;20444;-67
2022/08/16 01:39:46;;;;;;;6.83;6.23;;;18.50;99.90;;;;;;5022898;28;20272;-66
2022/08/16 01:42:12;;;;;;;8.00;5.93;;;18.50;99.90;;;;;;5025012;28;20217;-65
2022/08/16 01:44:39;;;;;;;6.27;5.70;;;18.60;99.90;;;;;;5045795;28;20192;-66
2022/08/16 01:47:06;;;;;;;6.17;5.07;;;18.50;99.90;;;;;;5030892;28;20457;-66
2022/08/16 01:49:38;;;;;;;5.70;5.30;;;18.60;99.90;;;;;;5036911;28;20614;-67
2022/08/16 01:52:09;;;;;;;5.50;5.20;;;18.60;99.90;;;;;;5022985;28;20791;-66
2022/08/16 01:54:34;;;;;;;6.00;5.60;;;18.50;99.90;;;;;;5040256;28;20494;-66
2022/08/16 01:57:01;;;;;;;6.03;5.53;;;18.50;99.90;;;;;;5041406;28;20479;-66
2022/08/16 01:59:28;;;;;;;6.90;5.33;;;18.50;99.90;;;;;;5040989;28;20617;-67
2022/08/16 02:01:54;;;;;;;6.23;5.73;;;18.50;99.90;;;;;;5024765;28;20507;-66
2022/08/16 02:04:22;;;;;;;7.10;6.40;;;18.60;99.90;;;;;;5038995;28;20446;-67
2022/08/16 02:06:48;;;;;;;6.10;5.60;;;18.60;99.90;;;;;;5037011;28;20465;-66
2022/08/16 02:09:15;;;;;;;7.20;6.60;;;18.60;99.90;;;;;;5040025;28;20812;-66
2022/08/16 02:11:44;;;;;;;6.23;5.83;;;18.60;99.90;;;;;;5025688;28;20179;-67
2022/08/16 02:14:10;;;;;;;6.33;5.77;;;18.70;99.90;;;;;;5033564;28;20531;-64
2022/08/16 02:16:36;;;;;;;6.90;6.33;;;18.80;99.90;;;;;;5041538;28;20830;-67
2022/08/16 02:19:01;;;;;;;6.30;5.67;;;18.80;99.90;;;;;;5039304;28;20532;-65
2022/08/16 02:21:29;;;;;;;6.93;6.33;;;18.90;99.90;;;;;;5028089;28;20709;-66
2022/08/16 02:23:54;;;;;;;5.63;5.13;;;19.00;99.90;;;;;;5037787;28;20517;-67
2022/08/16 02:26:20;;;;;;;6.53;6.03;;;19.00;99.90;;;;;;5032214;28;20469;-66
2022/08/16 02:28:45;;;;;;;6.90;6.40;;;19.00;99.90;;;;;;5032792;28;20212;-67
2022/08/16 02:31:13;;;;;;;6.03;5.57;;;19.10;99.90;;;;;;5027929;28;20195;-66
2022/08/16 02:33:40;;;;;;;6.13;5.53;;;19.10;99.90;;;;;;5027305;28;20182;-66
2022/08/16 02:36:06;;;;;;;6.57;5.97;;;19.10;99.90;;;;;;5030764;28;20598;-67
2022/08/16 02:38:32;;;;;;;6.33;5.73;;;19.10;99.90;;;;;;5030742;28;20518;-65
2022/08/16 02:41:00;;;;;;;5.97;5.40;;;19.10;99.90;;;;;;5038704;28;20988;-65
2022/08/16 02:43:28;;;;;;;7.83;6.37;;;19.00;99.90;;;;;;5042511;28;20177;-67
2022/08/16 02:45:55;;;;;;;5.90;5.40;;;19.00;99.90;;;;;;5019751;28;20558;-67
2022/08/16 02:48:21;;;;;;;6.40;5.87;;;19.00;99.90;;;;;;5024387;28;20473;-66
2022/08/16 02:50:46;;;;;;;7.37;6.67;;;19.00;99.90;;;;;;5034623;28;20826;-64
2022/08/16 02:53:12;;;;;;;7.60;6.67;;;18.90;99.90;;;;;;5044690;28;20200;-66
2022/08/16 02:55:37;;;;;;;6.60;6.00;;;18.90;99.90;;;;;;5030445;28;20238;-67
2022/08/16 02:58:04;;;;;;;6.97;6.47;;;18.90;99.90;;;;;;5018823;28;20205;-66
2022/08/16 03:00:30;;;;;;;6.77;6.20;;;19.00;99.90;;;;;;5022881;28;20260;-66
2022/08/16 03:02:55;;;;;;;7.10;6.30;;;18.90;99.90;;;;;;5022736;28;20462;-64
2022/08/16 03:05:21;;;;;;;6.80;6.20;;;19.00;99.90;;;;;;5029859;28;20471;-64
2022/08/16 03:07:46;;;;;;;5.73;5.33;;;18.90;99.90;;;;;;5021133;28;20285;-64
2022/08/16 03:10:12;;;;;;;6.20;5.70;;;18.90;99.90;;;;;;5033873;28;20178;-64
2022/08/16 03:12:39;;;;;;;5.93;5.50;;;18.90;99.90;;;;;;5015740;28;20178;-63
2022/08/16 03:15:08;;;;;;;5.03;4.73;;;18.90;99.90;;;;;;5021235;28;20949;-64
2022/08/16 03:17:34;;;;;;;6.37;5.97;;;18.90;99.90;;;;;;5028062;28;20442;-64
2022/08/16 03:20:00;;;;;;;6.63;6.23;;;18.90;99.90;;;;;;5011048;28;20529;-65
2022/08/16 03:22:26;;;;;;;8.03;6.43;;;18.80;99.90;;;;;;5021518;28;20177;-63
2022/08/16 03:24:51;;;;;;;6.80;5.73;;;18.80;99.90;;;;;;5030948;28;20188;-65
2022/08/16 03:27:17;;;;;;;6.23;5.77;;;18.70;99.90;;;;;;5034613;28;20514;-64
2022/08/16 03:29:42;;;;;;;5.97;5.47;;;18.70;99.90;;;;;;5030920;28;20220;-64
2022/08/16 03:32:08;;;;;;;7.47;6.70;;;18.70;99.90;;;;;;5034563;28;20186;-64
2022/08/16 03:34:34;;;;;;;5.30;4.80;;;18.60;99.90;;;;;;5035848;28;20174;-64
2022/08/16 03:37:00;;;;;;;6.47;6.07;;;18.60;99.90;;;;;;5029405;28;20301;-66
2022/08/16 03:39:26;;;;;;;6.80;6.20;;;18.60;99.90;;;;;;5019325;28;20177;-66
2022/08/16 03:41:53;;;;;;;6.00;5.60;;;18.50;99.90;;;;;;5033975;28;20885;-65
2022/08/16 03:44:19;;;;;;;7.40;6.70;;;18.50;99.90;;;;;;5033999;28;20270;-64
2022/08/16 03:46:44;;;;;;;6.90;6.40;;;18.30;99.90;;;;;;5019553;28;20458;-66
2022/08/16 03:49:11;;;;;;;8.70;6.77;;;18.30;99.90;;;;;;5033705;28;20469;-66
2022/08/16 03:51:37;;;;;;;6.33;5.73;;;18.30;99.90;;;;;;5042566;28;20185;-67
2022/08/16 03:54:04;;;;;;;7.33;6.80;;;18.30;99.90;;;;;;5032221;28;20484;-66
2022/08/16 03:56:29;;;;;;;6.50;6.00;;;18.20;99.90;;;;;;5040736;28;20992;-66
2022/08/16 03:58:55;;;;;;;7.50;7.00;;;18.20;99.90;;;;;;5030869;28;20523;-66
2022/08/16 04:01:22;;;;;;;6.10;5.70;;;18.10;99.90;;;;;;5032134;28;20202;-67
2022/08/16 04:03:48;;;;;;;6.87;6.23;;;18.10;99.90;;;;;;5040366;28;20222;-67
2022/08/16 04:06:14;;;;;;;6.60;6.00;;;18.20;99.90;;;;;;5020959;28;20897;-66
2022/08/16 04:08:39;;;;;;;6.90;6.30;;;18.20;99.90;;;;;;5032900;28;20463;-67
2022/08/16 04:11:05;;;;;;;7.30;6.60;;;18.30;99.90;;;;;;5023730;28;20190;-66
2022/08/16 04:13:31;;;;;;;6.93;6.47;;;18.20;99.90;;;;;;5013726;28;20186;-67
2022/08/16 04:15:58;;;;;;;7.60;7.00;;;18.20;99.90;;;;;;5032754;28;20199;-67
2022/08/16 04:18:24;;;;;;;7.13;6.63;;;18.20;99.90;;;;;;5025675;28;20181;-64
2022/08/16 04:20:50;;;;;;;7.00;6.50;;;18.10;99.90;;;;;;5029992;28;20450;-67
2022/08/16 04:23:16;;;;;;;8.67;6.87;;;18.10;99.90;;;;;;5042678;28;20443;-67
2022/08/16 04:25:42;;;;;;;7.53;7.00;;;18.20;99.90;;;;;;5038520;28;20499;-64
2022/08/16 04:28:08;;;;;;;7.30;6.70;;;18.30;99.90;;;;;;5039112;28;20670;-65
2022/08/16 04:30:33;;;;;;;6.63;6.03;;;18.30;99.90;;;;;;5034304;28;20540;-66
2022/08/16 04:32:59;;;;;;;7.10;6.57;;;18.30;99.90;;;;;;5024734;28;20277;-64
2022/08/16 04:35:25;;;;;;;7.50;6.80;;;18.30;99.90;;;;;;5024392;28;20268;-63
2022/08/16 04:37:52;;;;;;;6.60;5.93;;;18.30;99.90;;;;;;5022032;28;20448;-63
2022/08/16 04:40:18;;;;;;;7.30;6.60;;;18.40;99.90;;;;;;5031190;28;20485;-64
2022/08/16 04:42:44;;;;;;;7.47;6.77;;;18.40;99.90;;;;;;5018030;28;20453;-66
2022/08/16 04:45:12;;;;;;;6.57;6.07;;;18.50;99.90;;;;;;5020617;28;20445;-65
2022/08/16 04:47:39;;;;;;;6.93;6.50;;;18.50;99.90;;;;;;5023133;28;20876;-64
2022/08/16 04:50:17;;;;;;;7.13;6.53;;;18.60;99.90;;;;;;5023668;28;20935;-65
2022/08/16 04:52:45;;;;;;;6.30;5.80;;;18.60;99.90;;;;;;5019108;28;20992;-64
2022/08/16 04:55:20;;;;;;;7.10;6.43;;;18.70;99.90;;;;;;5018757;28;20446;-64
2022/08/16 04:57:48;;;;;;;6.93;6.33;;;18.70;99.90;;;;;;5020671;28;20452;-65
2022/08/16 05:00:21;;;;;;;6.90;6.30;;;18.90;99.90;;;;;;5020836;28;20503;-67
2022/08/16 05:02:49;;;;;;;6.70;6.10;;;18.90;99.90;;;;;;5017685;28;20445;-64
2022/08/16 05:05:14;;;;;;;6.20;5.70;;;18.80;99.90;;;;;;5014715;28;21294;-67
2022/08/16 05:07:40;;;;;;;7.60;6.80;;;18.80;99.90;;;;;;5013897;28;20556;-66
2022/08/16 05:10:08;;;;;;;7.40;6.73;;;18.90;99.90;;;;;;5018918;28;20187;-66
2022/08/16 05:12:34;;;;;;;7.17;6.10;;;18.80;99.90;;;;;;5018750;28;20655;-66
2022/08/16 05:15:00;;;;;;;6.37;5.97;;;18.80;99.90;;;;;;5021026;28;20441;-65
2022/08/16 05:17:26;;;;;;;7.10;6.60;;;18.80;99.90;;;;;;5014219;28;20811;-66
2022/08/16 05:19:52;;;;;;;6.73;6.10;;;18.80;99.90;;;;;;5020865;28;20193;-67
2022/08/16 05:22:18;;;;;;;6.57;5.97;;;18.90;99.90;;;;;;5017765;28;20959;-67
2022/08/16 05:24:44;;;;;;;7.27;6.73;;;18.90;99.90;;;;;;5022711;28;20448;-67
2022/08/16 05:27:10;;;;;;;7.30;6.60;;;19.10;99.90;;;;;;5042686;28;20621;-66
2022/08/16 05:29:35;;;;;;;7.10;6.50;;;19.10;99.90;;;;;;5023964;28;20188;-64
2022/08/16 05:32:01;;;;;;;7.17;6.67;;;19.20;99.90;;;;;;5026344;28;20210;-64
2022/08/16 05:34:27;;;;;;;6.60;6.10;;;19.30;99.90;;;;;;5036048;28;20544;-64
2022/08/16 05:36:56;;;;;;;7.60;7.00;;;19.30;99.90;;;;;;5032494;28;20203;-66
2022/08/16 05:39:22;;;;;;;7.50;6.90;;;19.30;99.90;;;;;;5033059;28;20528;-68
2022/08/16 05:41:49;;;;;;;6.63;6.00;;;19.40;99.90;;;;;;5018951;28;20447;-65
2022/08/16 05:44:15;;;;;;;6.50;5.97;;;19.40;99.90;;;;;;5013963;28;20438;-64
2022/08/16 05:46:43;;;;;;;7.07;6.13;;;19.30;99.90;;;;;;5019552;28;21159;-65
2022/08/16 05:49:09;;;;;;;7.67;6.97;;;19.40;99.90;;;;;;5011947;28;20590;-65
2022/08/16 05:51:35;;;;;;;11.93;6.90;;;19.50;99.90;;;;;;5016130;28;20473;-65
2022/08/16 05:54:01;;;;;;;7.57;7.00;;;19.60;99.90;;;;;;5033312;28;20603;-65
2022/08/16 05:56:26;;;;;;;6.60;6.00;;;19.60;99.90;;;;;;5016212;28;20731;-64
2022/08/16 05:58:52;;;;;;;6.40;5.90;;;19.60;99.90;;;;;;5017011;28;20189;-67
2022/08/16 06:01:20;;;;;;;6.90;6.20;;;19.60;99.90;;;;;;5014251;28;20191;-67
2022/08/16 06:03:46;;;;;;;6.60;6.10;;;19.70;99.90;;;;;;5030237;28;20284;-67
2022/08/16 06:06:11;;;;;;;6.93;6.33;;;19.60;99.90;;;;;;5013313;28;20501;-67
2022/08/16 06:08:37;;;;;;;7.90;7.20;;;19.50;99.90;;;;;;5011107;28;20218;-69
2022/08/16 06:11:02;;;;;;;8.03;6.10;;;19.40;99.90;;;;;;5032642;28;20600;-69
2022/08/16 06:13:28;;;;;;;6.60;6.10;;;19.30;99.90;;;;;;5023800;28;20169;-65
2022/08/16 06:15:53;;;;;;;7.80;6.60;;;19.30;99.90;;;;;;5032450;28;20259;-65
2022/08/16 06:18:19;;;;;;;10.87;9.97;;;19.20;99.90;;;;;;5023241;28;20183;-66
2022/08/16 06:20:44;;;;;;;7.63;6.50;;;19.40;99.90;;;;;;5031007;28;20267;-65
2022/08/16 06:23:10;;;;;;;8.63;6.73;;;19.50;99.90;;;;;;5036073;28;20186;-69
2022/08/16 06:25:36;;;;;;;6.83;6.33;;;19.70;99.90;;;;;;5019651;28;20210;-69
2022/08/16 06:28:04;;;;;;;6.83;6.33;;;19.90;99.90;;;;;;5025445;28;20198;-68
2022/08/16 06:30:31;;;;;;;6.57;6.07;;;20.20;99.90;;;;;;5039186;28;20476;-65
2022/08/16 06:32:58;;;;;;;6.80;6.17;;;20.40;99.90;;;;;;5016196;28;20899;-66
2022/08/16 06:35:23;;;;;;;7.13;6.33;;;20.70;99.90;;;;;;5036676;28;20551;-66
2022/08/16 06:37:49;;;;;;;5.93;5.47;;;21.00;99.90;;;;;;5040393;28;20527;-66
2022/08/16 06:40:14;;;;;;;7.40;6.10;;;21.20;99.90;;;;;;5025067;28;20558;-66
2022/08/16 06:42:40;;;;;;;6.80;6.10;;;21.40;99.90;;;;;;5026745;28;20198;-66
2022/08/16 06:45:06;;;;;;;8.13;6.03;;;21.50;99.90;;;;;;5037328;28;20203;-66
2022/08/16 06:47:32;;;;;;;7.43;5.70;;;21.60;99.90;;;;;;5034269;28;20674;-67
2022/08/16 06:49:57;;;;;;;6.47;5.87;;;21.90;99.90;;;;;;5036624;28;20615;-66
2022/08/16 06:52:23;;;;;;;7.10;6.13;;;21.80;99.90;;;;;;5035645;28;20170;-66
2022/08/16 06:54:48;;;;;;;6.70;6.00;;;21.80;99.90;;;;;;4986351;28;20952;-66
2022/08/16 06:57:16;;;;;;;7.33;6.00;;;22.00;99.90;;;;;;4999482;28;20206;-65
2022/08/16 06:59:42;;;;;;;7.27;6.67;;;22.00;99.90;;;;;;5007277;28;20714;-65
2022/08/16 07:02:08;;;;;;;6.10;5.60;;;22.10;99.90;;;;;;5009098;28;20445;-65
2022/08/16 07:04:33;;;;;;;7.07;6.43;;;22.20;99.90;;;;;;5019780;28;20175;-65
2022/08/16 07:07:00;;;;;;;6.40;5.80;;;22.40;99.90;;;;;;5011569;28;20195;-65
2022/08/16 07:09:25;;;;;;;7.20;6.53;;;22.60;99.90;;;;;;5022374;28;20194;-65
2022/08/16 07:11:51;;;;;;;6.80;6.20;;;23.00;99.90;;;;;;5020158;28;20451;-63
2022/08/16 07:14:17;;;;;;;7.63;6.93;;;23.20;99.90;;;;;;5007996;28;20262;-63
2022/08/16 07:16:42;;;;;;;6.63;6.13;;;23.70;99.90;;;;;;5022115;28;20343;-63
2022/08/16 07:19:08;;;;;;;7.00;6.50;;;24.00;99.90;;;;;;5027303;28;20453;-63
2022/08/16 07:21:35;;;;;;;6.87;6.37;;;24.30;99.90;;;;;;5020409;28;20179;-63
2022/08/16 07:24:02;;;;;;;6.90;6.30;;;24.20;99.90;;;;;;5017499;28;20174;-63
2022/08/16 07:26:28;;;;;;;6.30;5.80;;;24.10;99.90;;;;;;5021667;28;20459;-64
2022/08/16 07:28:53;;;;;;;6.80;6.27;;;24.50;99.90;;;;;;5018016;28;20480;-65
2022/08/16 07:31:20;;;;;;;7.50;6.93;;;25.00;99.90;;;;;;5035409;28;20656;-64
2022/08/16 07:33:46;;;;;;;7.80;7.10;;;25.50;99.90;;;;;;5018388;28;20175;-64
2022/08/16 07:36:13;;;;;;;9.37;6.43;;;25.50;99.90;;;;;;5021126;28;20457;-64
2022/08/16 07:38:40;;;;;;;7.23;6.67;;;25.30;99.90;;;;;;5025610;28;20439;-64
2022/08/16 07:41:05;;;;;;;11.47;10.47;;;25.30;99.90;;;;;;5026433;28;20445;-64
2022/08/16 07:43:31;;;;;;;7.93;7.10;;;25.70;99.90;;;;;;5044549;28;20519;-64
2022/08/16 07:45:58;;;;;;;7.80;7.00;;;25.90;99.90;;;;;;5020462;28;20222;-64
2022/08/16 07:48:24;;;;;;;7.60;7.00;;;26.00;99.90;;;;;;5028026;28;21034;-64
2022/08/16 07:50:51;;;;;;;7.17;6.60;;;26.00;99.90;;;;;;5028492;28;20437;-64
2022/08/16 07:53:17;;;;;;;8.07;7.07;;;26.20;99.90;;;;;;5022722;28;20540;-63
2022/08/16 07:55:42;;;;;;;8.60;7.40;;;26.30;99.90;;;;;;5032105;28;20463;-64
2022/08/16 07:58:08;;;;;;;8.00;7.30;;;26.20;99.90;;;;;;5022444;28;20441;-64
2022/08/16 08:00:33;;;;;;;7.70;7.10;;;26.50;99.80;;;;;;5038573;28;20178;-64
2022/08/16 08:02:59;;;;;;;7.10;6.60;;;26.60;98.80;;;;;;5014301;28;20186;-64
2022/08/16 08:05:26;;;;;;;8.50;7.67;;;27.00;98.70;;;;;;5012962;28;20201;-64
2022/08/16 08:07:52;;;;;;;7.40;6.80;;;27.50;97.60;;;;;;5022199;28;20225;-64
2022/08/16 08:10:19;;;;;;;6.90;6.30;;;27.60;97.10;;;;;;5032555;28;20963;-64
2022/08/16 08:12:47;;;;;;;7.97;7.27;;;27.40;96.50;;;;;;5028853;28;20699;-64
2022/08/16 08:15:13;;;;;;;7.27;6.60;;;27.20;96.70;;;;;;5035534;28;20440;-64
2022/08/16 08:17:41;;;;;;;8.67;7.87;;;27.00;96.30;;;;;;5017200;28;20425;-66
2022/08/16 08:20:09;;;;;;;7.90;7.20;;;26.80;96.50;;;;;;5029592;28;20536;-66
2022/08/16 08:22:36;;;;;;;8.27;7.20;;;26.30;97.00;;;;;;5025854;28;20488;-64
2022/08/16 08:25:02;;;;;;;7.63;6.70;;;26.00;97.00;;;;;;5013584;28;20476;-64
2022/08/16 08:27:28;;;;;;;9.30;8.53;;;26.10;97.30;;;;;;5018347;28;20498;-64
2022/08/16 08:29:54;;;;;;;7.80;7.23;;;26.70;96.90;;;;;;5015648;28;20496;-64
2022/08/16 08:32:20;;;;;;;7.37;6.70;;;26.90;96.20;;;;;;5030700;28;20455;-64
2022/08/16 08:34:48;;;;;;;7.67;7.13;;;26.30;96.60;;;;;;5020383;28;20433;-63
2022/08/16 08:37:14;;;;;;;7.63;7.03;;;26.20;97.30;;;;;;5027160;28;20664;-63
2022/08/16 08:39:39;;;;;;;8.77;7.87;;;26.30;97.00;;;;;;5022733;28;20439;-64
2022/08/16 08:42:06;;;;;;;8.30;7.57;;;26.30;96.70;;;;;;5032490;28;20178;-63
2022/08/16 08:44:32;;;;;;;8.10;7.50;;;26.20;96.90;;;;;;5024936;28;20194;-64
2022/08/16 08:47:01;;;;;;;7.07;6.47;;;26.30;96.70;;;;;;5028970;28;20464;-63
2022/08/16 08:49:28;;;;;;;8.93;6.87;;;26.50;96.80;;;;;;5026052;28;20513;-63
2022/08/16 08:51:54;;;;;;;7.87;7.27;;;27.20;95.70;;;;;;5019098;28;20445;-63
2022/08/16 08:54:19;;;;;;;8.53;7.77;;;27.10;95.00;;;;;;5036190;28;20832;-64
2022/08/16 08:56:45;;;;;;;6.93;6.43;;;27.90;94.50;;;;;;5026617;28;20267;-64
2022/08/16 08:59:12;;;;;;;7.93;7.33;;;29.00;92.60;;;;;;5019611;28;20179;-63
2022/08/16 09:01:38;;;;;;;7.87;7.17;;;29.10;92.00;;;;;;5037536;28;20169;-64
2022/08/16 09:04:05;;;;;;;7.73;6.67;;;28.90;89.80;;;;;;5019398;28;20477;-63
2022/08/16 09:06:31;;;;;;;7.00;6.30;;;28.50;90.10;;;;;;5026680;28;20460;-63
2022/08/16 09:08:57;;;;;;;7.37;6.63;;;28.20;90.20;;;;;;5033149;28;21036;-63
2022/08/16 09:11:24;;;;;;;6.70;6.30;;;28.00;90.90;;;;;;5031779;28;20459;-63
2022/08/16 09:13:49;;;;;;;7.60;7.07;;;27.10;91.50;;;;;;5020815;28;21006;-63
2022/08/16 09:16:16;;;;;;;7.90;7.30;;;26.40;92.70;;;;;;5037433;28;20621;-63
2022/08/16 09:18:43;;;;;;;7.90;7.40;;;26.00;93.50;;;;;;5017001;28;20182;-63
2022/08/16 09:21:09;;;;;;;7.00;6.40;;;26.60;93.70;;;;;;5035155;28;21240;-63
2022/08/16 09:23:36;;;;;;;7.77;7.10;;;27.60;92.90;;;;;;5027127;28;20821;-63
2022/08/16 09:26:06;;;;;;;6.70;6.20;;;28.80;90.70;;;;;;5013589;28;20548;-64
2022/08/16 09:28:32;;;;;;;7.80;6.00;;;29.90;88.10;;;;;;5022046;28;20559;-64
2022/08/16 09:30:58;;;;;;;6.80;6.30;;;30.60;84.30;;;;;;5017507;28;20528;-64
2022/08/16 09:33:24;;;;;;;6.67;6.03;;;31.20;79.00;;;;;;5016597;28;20611;-64
2022/08/16 09:35:50;;;;;;;6.30;5.90;;;31.10;79.10;;;;;;5019935;28;20688;-64
2022/08/16 09:38:15;;;;;;;6.00;5.47;;;31.70;76.40;;;;;;5029952;28;20313;-63
2022/08/16 09:40:43;;;;;;;7.40;6.57;;;31.40;75.00;;;;;;5036812;28;20518;-63
2022/08/16 09:43:10;;;;;;;7.67;6.43;;;31.60;73.90;;;;;;5018493;28;20769;-64
2022/08/16 09:45:40;;;;;;;5.70;5.40;;;32.30;73.10;;;;;;5029065;28;20462;-64
2022/08/16 09:48:06;;;;;;;6.13;5.73;;;32.80;70.40;;;;;;5024112;28;20543;-63
2022/08/16 09:50:34;;;;;;;6.97;6.33;;;33.40;69.10;;;;;;5019750;28;20941;-64
2022/08/16 09:53:00;;;;;;;7.10;6.43;;;33.20;66.00;;;;;;5048809;28;20453;-64
2022/08/16 09:55:25;;;;;;;6.73;6.27;;;32.50;67.10;;;;;;5022085;28;20448;-64
2022/08/16 09:57:51;;;;;;;7.90;7.30;;;31.70;68.30;;;;;;5030563;28;20253;-64
2022/08/16 10:00:17;;;;;;;6.97;6.40;;;31.40;69.10;;;;;;5038580;28;20267;-64
2022/08/16 10:02:43;;;;;;;6.20;5.80;;;31.40;68.90;;;;;;5017890;28;20257;-63
2022/08/16 10:05:10;;;;;;;7.83;6.60;;;31.20;69.40;;;;;;5027513;28;20629;-66
2022/08/16 10:07:36;;;;;;;6.17;5.67;;;31.00;69.10;;;;;;5024976;28;20908;-64
2022/08/16 10:10:01;;;;;;;8.37;7.30;;;31.30;69.80;;;;;;5018620;28;20438;-68
2022/08/16 10:15:21;;;;;;;8.20;7.50;;;31.00;72.10;;;;;;5021361;28;20517;-68
2022/08/16 10:17:51;;;;;;;7.57;6.97;;;31.20;72.40;;;;;;5028770;28;20450;-67
2022/08/16 10:20:16;;;;;;;7.53;7.00;;;31.00;72.60;;;;;;5020648;28;20513;-66
2022/08/16 10:22:42;;;;;;;6.87;6.33;;;31.60;73.10;;;;;;5028588;28;20533;-66
2022/08/16 10:25:09;;;;;;;7.17;6.67;;;33.40;68.70;;;;;;5016842;28;20182;-64
2022/08/16 10:27:35;;;;;;;6.80;6.20;;;35.30;64.50;;;;;;5022518;28;20749;-64
2022/08/16 10:30:04;;;;;;;7.13;6.63;;;36.50;61.00;;;;;;5028676;28;20435;-64
2022/08/16 10:32:30;;;;;;;6.43;5.93;;;38.40;56.30;;;;;;5033154;28;20465;-64
2022/08/16 10:34:56;;;;;;;5.70;5.40;;;38.90;54.30;;;;;;5017326;28;20525;-64
2022/08/16 10:37:21;;;;;;;6.97;6.20;;;38.90;52.10;;;;;;5018756;28;20656;-64
2022/08/16 10:39:47;;;;;;;6.77;6.27;;;37.50;52.80;;;;;;5024850;28;20195;-65
2022/08/16 10:42:12;;;;;;;7.20;6.70;;;35.30;54.90;;;;;;5021301;28;20190;-65
2022/08/16 10:44:38;;;;;;;8.00;7.30;;;33.50;56.60;;;;;;5032036;28;20599;-67
2022/08/16 10:47:04;;;;;;;10.60;9.83;;;32.30;58.50;;;;;;5015978;28;21021;-67
2022/08/16 10:49:30;;;;;;;15.87;13.77;;;31.70;60.40;;;;;;5018374;28;20508;-67
2022/08/16 10:51:55;;;;;;;7.60;7.00;;;31.30;61.10;;;;;;5029807;28;20174;-65
2022/08/16 10:54:21;;;;;;;12.40;11.30;;;31.10;62.10;;;;;;5019305;28;20510;-67
2022/08/16 10:56:47;;;;;;;8.10;7.50;;;30.90;63.80;;;;;;5021187;28;20625;-66
2022/08/16 10:59:13;;;;;;;7.00;6.40;;;30.90;64.00;;;;;;5029632;28;20445;-66
2022/08/16 11:01:38;;;;;;;7.63;7.03;;;31.20;63.00;;;;;;5021658;28;20272;-67
2022/08/16 11:04:06;;;;;;;7.10;6.50;;;31.30;61.80;;;;;;5025617;28;20218;-67
2022/08/16 11:06:32;;;;;;;7.00;6.50;;;32.80;60.00;;;;;;5032950;28;20453;-66
2022/08/16 11:08:57;;;;;;;7.37;6.73;;;33.80;57.80;;;;;;5019537;28;20846;-66
2022/08/16 11:11:24;;;;;;;7.03;6.40;;;33.10;58.20;;;;;;5022708;28;20548;-66
2022/08/16 11:13:51;;;;;;;6.33;5.83;;;32.30;58.20;;;;;;5012507;28;20171;-66
2022/08/16 11:16:17;;;;;;;6.93;6.37;;;32.50;58.50;;;;;;5016446;28;20850;-66
2022/08/16 11:18:43;;;;;;;6.17;5.77;;;32.90;57.10;;;;;;5010759;28;20556;-66
2022/08/16 11:21:09;;;;;;;9.47;6.60;;;32.40;57.60;;;;;;5020787;28;20866;-66
2022/08/16 11:23:34;;;;;;;7.73;7.00;;;32.00;58.20;;;;;;5016698;28;20278;-65
2022/08/16 11:26:00;;;;;;;7.67;5.43;;;31.70;58.50;;;;;;5023045;28;20463;-65
2022/08/16 11:28:26;;;;;;;6.93;6.53;;;31.70;59.20;;;;;;5018406;28;20202;-66
2022/08/16 11:30:52;;;;;;;7.03;6.53;;;31.50;58.80;;;;;;4991211;28;20237;-66
2022/08/16 11:33:17;;;;;;;9.50;7.03;;;31.20;59.00;;;;;;5001711;28;20611;-67
2022/08/16 11:35:43;;;;;;;6.60;6.10;;;32.10;58.90;;;;;;5041425;28;20251;-66
2022/08/16 11:38:14;;;;;;;7.30;6.63;;;33.10;57.40;;;;;;5032821;28;20181;-67
2022/08/16 11:40:45;;;;;;;6.80;6.30;;;33.20;56.40;;;;;;5008821;28;20186;-67
2022/08/16 11:43:12;;;;;;;6.13;5.73;;;32.20;56.80;;;;;;5027955;28;20521;-66
2022/08/16 11:45:38;;;;;;;13.03;11.93;;;31.30;58.30;;;;;;5027425;28;20455;-66
2022/08/16 11:48:04;;;;;;;7.13;6.47;;;32.10;57.80;;;;;;5026495;28;20469;-67
2022/08/16 11:50:32;;;;;;;7.03;6.47;;;32.50;57.10;;;;;;5017496;28;20544;-66
2022/08/16 11:53:01;;;;;;;7.40;6.77;;;32.20;56.70;;;;;;5036857;28;20429;-66
2022/08/16 11:55:26;;;;;;;6.40;6.00;;;32.50;57.00;;;;;;5035375;28;20891;-66
2022/08/16 11:57:52;;;;;;;6.23;5.87;;;32.80;56.10;;;;;;5028144;28;20487;-66
2022/08/16 12:00:18;;;;;;;6.33;5.60;;;32.80;55.60;;;;;;5020493;28;20313;-66
2022/08/16 12:02:43;;;;;;;5.83;5.43;;;32.80;55.30;;;;;;5035813;28;20194;-66
2022/08/16 12:05:12;;;;;;;6.40;5.90;;;32.90;55.30;;;;;;5026668;28;20170;-68
2022/08/16 12:07:39;;;;;;;6.13;5.50;;;33.60;55.00;;;;;;5020334;28;20343;-68
2022/08/16 12:10:08;;;;;;;6.50;6.00;;;33.60;54.00;;;;;;5012086;28;20524;-67
2022/08/16 12:12:33;;;;;;;6.60;6.10;;;33.00;54.00;;;;;;5024071;28;20449;-67
2022/08/16 12:14:59;;;;;;;6.60;6.20;;;32.50;54.90;;;;;;5014692;28;20434;-68
2022/08/16 12:17:25;;;;;;;6.60;5.53;;;32.00;55.70;;;;;;5024618;28;20229;-67
2022/08/16 12:19:50;;;;;;;5.67;5.37;;;32.70;55.30;;;;;;5013267;28;20722;-67
2022/08/16 12:22:16;;;;;;;5.53;5.13;;;36.00;52.40;;;;;;5012143;28;20182;-68
2022/08/16 12:24:42;;;;;;;5.90;5.50;;;39.20;48.40;;;;;;5018172;28;20179;-68
2022/08/16 12:27:08;;;;;;;4.77;4.50;;;40.00;46.50;;;;;;5044076;28;20209;-67
2022/08/16 12:29:34;;;;;;;5.83;4.63;;;39.50;45.30;;;;;;5019351;28;20226;-68
2022/08/16 12:32:00;;;;;;;6.30;5.90;;;40.70;44.40;;;;;;5029006;28;20183;-68
2022/08/16 12:34:25;;;;;;;5.87;5.37;;;41.70;43.00;;;;;;5034579;28;20456;-68
2022/08/16 12:36:51;;;;;;;5.63;5.20;;;42.60;41.40;;;;;;5027316;28;21103;-67
2022/08/16 12:39:19;;;;;;;5.90;5.50;;;42.80;40.50;;;;;;5014760;28;20305;-68
2022/08/16 12:41:45;;;;;;;5.40;4.97;;;43.10;39.80;;;;;;5021366;28;20174;-68
2022/08/16 12:44:12;;;;;;;5.67;5.27;;;42.10;38.90;;;;;;5033153;28;20460;-68